Time;durP1;ratioP1;P1;durP2;ratioP2;P2;SDS_P1;SDS_P2;PMS_P1;PMS_P2;Temp;Humidity;BMP_temperature;BMP_pressure;BME280_temperature;BME280_humidity;BME280_pressure;Samples;Min_cycle;Max_cycle;Signal;HPM_P1;HPM_P2
2021/01/07 00:00:10;;;;;;;;;;;6.80;98.40;;;;;;5053512;28;19996;-68
2021/01/07 00:11:51;;;;;;;;;;;6.80;98.30;;;;;;5050030;28;19978;-68
2021/01/07 00:17:36;;;;;;;;;;;6.80;98.30;;;;;;5040181;28;19940;-68
2021/01/07 00:20:06;;;;;;;;;;;6.80;98.30;;;;;;5043457;28;20008;-68
2021/01/07 00:22:32;;;;;;;;;;;6.70;98.30;;;;;;5050363;28;20432;-68
2021/01/07 00:24:58;;;;;;;;;;;6.70;98.20;;;;;;5051400;28;19935;-68
2021/01/07 00:27:25;;;;;;;;;;;6.70;98.60;;;;;;5050140;28;19935;-68
2021/01/07 00:29:52;;;;;;;;;;;6.80;98.20;;;;;;5050873;28;20321;-68
2021/01/07 00:32:18;;;;;;;;;;;6.80;98.00;;;;;;5058355;28;20279;-68
2021/01/07 00:34:44;;;;;;;;;;;6.80;98.10;;;;;;5049888;28;19943;-68
2021/01/07 00:37:11;;;;;;;;;;;6.80;98.00;;;;;;5039875;28;20008;-68
2021/01/07 00:39:37;;;;;;;;;;;6.80;97.80;;;;;;5052423;28;20270;-69
2021/01/07 00:42:03;;;;;;;;;;;6.80;97.90;;;;;;5049368;28;19935;-69
2021/01/07 00:44:30;;;;;;;;;;;6.80;97.90;;;;;;5052610;28;19935;-69
2021/01/07 00:46:56;;;;;;;;;;;6.80;97.80;;;;;;5043224;28;19932;-68
2021/01/07 00:49:22;;;;;;;;;;;6.80;97.80;;;;;;5052684;28;20255;-69
2021/01/07 00:51:49;;;;;;;;;;;6.80;97.60;;;;;;5041569;28;19925;-69
2021/01/07 00:54:15;;;;;;;;;;;6.80;97.80;;;;;;5044514;28;19925;-68
2021/01/07 00:56:41;;;;;;;;;;;6.70;97.90;;;;;;5052202;28;19932;-69
2021/01/07 00:59:08;;;;;;;;;;;6.80;97.80;;;;;;5052898;28;19985;-68
2021/01/07 01:01:42;;;;;;;;;;;6.80;97.80;;;;;;5052151;28;19928;-69
2021/01/07 01:04:08;;;;;;;;;;;6.80;97.50;;;;;;5052524;28;19935;-68
2021/01/07 01:06:34;;;;;;;;;;;6.80;97.60;;;;;;5052133;28;19997;-68
2021/01/07 01:09:01;;;;;;;;;;;6.70;97.70;;;;;;5046340;28;19986;-69
2021/01/07 01:11:27;;;;;;;;;;;6.80;97.70;;;;;;5056306;28;20351;-68
2021/01/07 01:13:54;;;;;;;;;;;6.70;97.50;;;;;;5052137;28;19925;-68
2021/01/07 01:16:20;;;;;;;;;;;6.70;97.50;;;;;;5052258;28;19925;-69
2021/01/07 01:18:47;;;;;;;;;;;6.70;97.60;;;;;;5038777;28;19932;-69
2021/01/07 01:21:16;;;;;;;;;;;6.80;97.60;;;;;;5052172;28;19925;-68
2021/01/07 01:23:43;;;;;;;;;;;6.70;97.50;;;;;;5051892;28;19936;-68
2021/01/07 01:26:09;;;;;;;;;;;6.70;97.30;;;;;;5052027;28;20260;-69
2021/01/07 01:28:35;;;;;;;;;;;6.70;97.30;;;;;;5051964;28;19924;-69
2021/01/07 01:31:01;;;;;;;;;;;6.60;97.10;;;;;;5052375;28;19991;-68
2021/01/07 01:33:28;;;;;;;;;;;6.60;97.30;;;;;;5052248;28;20334;-69
2021/01/07 01:35:55;;;;;;;;;;;6.60;97.40;;;;;;5039404;28;20322;-68
2021/01/07 01:38:21;;;;;;;;;;;6.60;97.40;;;;;;5052084;28;19924;-69
2021/01/07 01:40:48;;;;;;;;;;;6.60;97.30;;;;;;5051826;28;19928;-68
2021/01/07 01:43:14;;;;;;;;;;;6.60;97.40;;;;;;5052260;28;20266;-68
2021/01/07 01:45:40;;;;;;;;;;;6.60;97.50;;;;;;5046697;28;19925;-69
2021/01/07 01:48:06;;;;;;;;;;;6.60;97.70;;;;;;5051803;28;19931;-69
2021/01/07 01:50:33;;;;;;;;;;;6.60;97.50;;;;;;5044094;28;19947;-69
2021/01/07 01:53:00;;;;;;;;;;;6.60;97.40;;;;;;5041019;28;19925;-69
2021/01/07 01:55:26;;;;;;;;;;;6.70;97.50;;;;;;5048269;28;19924;-68
2021/01/07 01:57:52;;;;;;;;;;;6.70;97.00;;;;;;5051710;28;20274;-68
2021/01/07 02:00:19;;;;;;;;;;;6.70;97.10;;;;;;5051841;28;19936;-69
2021/01/07 02:02:45;;;;;;;;;;;6.70;97.20;;;;;;5044630;28;19935;-69
2021/01/07 02:05:11;;;;;;;;;;;6.70;96.90;;;;;;5049921;28;20282;-69
2021/01/07 02:07:39;;;;;;;;;;;6.70;97.50;;;;;;5051246;28;19925;-70
2021/01/07 02:10:07;;;;;;;;;;;6.70;97.20;;;;;;5040563;28;20309;-70
2021/01/07 02:12:34;;;;;;;;;;;6.70;97.20;;;;;;5050756;28;19925;-69
2021/01/07 02:15:00;;;;;;;;;;;6.70;97.20;;;;;;5044095;28;19935;-69
2021/01/07 02:17:26;;;;;;;;;;;6.70;97.10;;;;;;5049668;28;19928;-69
2021/01/07 02:19:57;;;;;;;;;;;6.80;96.80;;;;;;5049134;28;20256;-68
2021/01/07 02:22:23;;;;;;;;;;;6.80;96.80;;;;;;5051781;28;19924;-69
2021/01/07 02:24:49;;;;;;;;;;;6.80;96.70;;;;;;5051498;28;20354;-69
2021/01/07 02:27:16;;;;;;;;;;;6.80;96.80;;;;;;5052799;28;19939;-69
2021/01/07 02:29:42;;;;;;;;;;;6.70;96.80;;;;;;5052989;28;19925;-69
2021/01/07 02:32:08;;;;;;;;;;;6.70;96.60;;;;;;5049663;28;20316;-69
2021/01/07 02:34:35;;;;;;;;;;;6.70;96.70;;;;;;5040882;28;19935;-70
2021/01/07 02:37:02;;;;;;;;;;;6.80;96.40;;;;;;5063875;28;19925;-69
2021/01/07 02:39:28;;;;;;;;;;;6.70;96.40;;;;;;5053430;28;19939;-69
2021/01/07 02:41:55;;;;;;;;;;;6.80;96.40;;;;;;5052940;28;19985;-69
2021/01/07 02:44:22;;;;;;;;;;;6.70;96.40;;;;;;5053387;28;19951;-69
2021/01/07 02:46:48;;;;;;;;;;;6.70;96.70;;;;;;5053270;28;20006;-69
2021/01/07 02:49:14;;;;;;;;;;;6.70;96.70;;;;;;5055270;28;19928;-70
2021/01/07 02:51:40;;;;;;;;;;;6.60;96.60;;;;;;5060962;28;19935;-69
2021/01/07 02:54:07;;;;;;;;;;;6.60;96.80;;;;;;5055262;28;20263;-70
2021/01/07 02:56:34;;;;;;;;;;;6.60;96.80;;;;;;5054610;28;20355;-69
2021/01/07 02:59:00;;;;;;;;;;;6.60;96.80;;;;;;5054842;28;19925;-69
2021/01/07 03:01:27;;;;;;;;;;;6.60;96.80;;;;;;5051729;28;19925;-69
2021/01/07 03:03:55;;;;;;;;;;;6.60;97.10;;;;;;5053103;28;19960;-69
2021/01/07 03:06:21;;;;;;;;;;;6.60;97.30;;;;;;5054851;28;19925;-69
2021/01/07 03:08:47;;;;;;;;;;;6.50;97.30;;;;;;5051728;28;19955;-69
2021/01/07 03:11:14;;;;;;;;;;;6.50;97.30;;;;;;5060292;28;19936;-69
2021/01/07 03:13:41;;;;;;;;;;;6.50;97.60;;;;;;5057388;28;19998;-69
2021/01/07 03:16:07;;;;;;;;;;;6.50;97.80;;;;;;5054723;28;19933;-69
2021/01/07 03:18:33;;;;;;;;;;;6.50;97.80;;;;;;5054608;28;19935;-70
2021/01/07 03:20:59;;;;;;;;;;;6.40;97.90;;;;;;5054252;28;19928;-69
2021/01/07 03:23:26;;;;;;;;;;;6.50;97.60;;;;;;5057013;28;19935;-69
2021/01/07 03:25:52;;;;;;;;;;;6.50;97.50;;;;;;5048026;28;20282;-69
2021/01/07 03:28:19;;;;;;;;;;;6.50;97.30;;;;;;5052578;28;20001;-70
2021/01/07 03:30:45;;;;;;;;;;;6.50;97.10;;;;;;5051981;28;19925;-67
2021/01/07 03:33:11;;;;;;;;;;;6.50;97.10;;;;;;5053326;28;19932;-68
2021/01/07 03:35:37;;;;;;;;;;;6.50;97.00;;;;;;5043596;28;19925;-67
2021/01/07 03:38:04;;;;;;;;;;;6.50;96.80;;;;;;5060055;28;21032;-69
2021/01/07 03:40:30;;;;;;;;;;;6.50;96.90;;;;;;5054276;28;19939;-69
2021/01/07 03:42:56;;;;;;;;;;;6.50;97.00;;;;;;5052991;28;20008;-70
2021/01/07 03:45:23;;;;;;;;;;;6.40;96.80;;;;;;5052916;28;19925;-67
2021/01/07 03:47:51;;;;;;;;;;;6.40;96.90;;;;;;5053600;28;19925;-67
2021/01/07 03:50:17;;;;;;;;;;;6.40;96.90;;;;;;5064436;28;19935;-68
2021/01/07 03:52:43;;;;;;;;;;;6.50;96.90;;;;;;5070429;28;20074;-68
2021/01/07 03:55:13;;;;;;;;;;;6.40;96.80;;;;;;5054038;28;20363;-68
2021/01/07 03:57:39;;;;;;;;;;;6.40;97.00;;;;;;5053786;28;19935;-68
2021/01/07 04:00:06;;;;;;;;;;;6.40;97.10;;;;;;5061817;28;20656;-68
2021/01/07 04:02:33;;;;;;;;;;;6.40;97.00;;;;;;5053674;28;19989;-69
2021/01/07 04:05:00;;;;;;;;;;;6.50;96.60;;;;;;5052584;28;20225;-69
2021/01/07 04:07:27;;;;;;;;;;;6.40;96.60;;;;;;5053416;28;20366;-68
2021/01/07 04:09:53;;;;;;;;;;;6.40;96.40;;;;;;5053294;28;20228;-69
2021/01/07 04:12:19;;;;;;;;;;;6.40;96.50;;;;;;5040101;28;20127;-69
2021/01/07 04:14:45;;;;;;;;;;;6.30;96.80;;;;;;5052693;28;19925;-69
2021/01/07 04:17:11;;;;;;;;;;;6.40;97.00;;;;;;5049071;28;19925;-69
2021/01/07 04:19:38;;;;;;;;;;;6.40;96.90;;;;;;5053406;28;19924;-69
2021/01/07 04:22:05;;;;;;;;;;;6.40;96.80;;;;;;5051034;28;19925;-69
2021/01/07 04:24:31;;;;;;;;;;;6.40;97.00;;;;;;5047303;28;19982;-69
2021/01/07 04:26:57;;;;;;;;;;;6.50;96.90;;;;;;5052516;28;19933;-69
2021/01/07 04:29:23;;;;;;;;;;;6.40;96.80;;;;;;5053388;28;19924;-69
2021/01/07 04:31:49;;;;;;;;;;;6.50;96.70;;;;;;5052398;28;19929;-69
2021/01/07 04:34:16;;;;;;;;;;;6.40;96.60;;;;;;5053255;28;20271;-69
2021/01/07 04:36:43;;;;;;;;;;;6.40;96.70;;;;;;5048938;28;19925;-69
2021/01/07 04:39:09;;;;;;;;;;;6.40;96.70;;;;;;5060977;28;20017;-69
2021/01/07 04:41:35;;;;;;;;;;;6.50;96.60;;;;;;5052931;28;19924;-69
2021/01/07 04:44:02;;;;;;;;;;;6.50;96.80;;;;;;5052562;28;20351;-69
2021/01/07 04:46:28;;;;;;;;;;;6.50;96.70;;;;;;5052649;28;19932;-69
2021/01/07 04:48:54;;;;;;;;;;;6.50;96.60;;;;;;5052299;28;19978;-69
2021/01/07 04:51:20;;;;;;;;;;;6.50;96.60;;;;;;5052550;28;19990;-69
2021/01/07 04:53:48;;;;;;;;;;;6.50;96.80;;;;;;5052322;28;19989;-69
2021/01/07 04:56:14;;;;;;;;;;;6.50;96.60;;;;;;5051263;28;20309;-69
2021/01/07 04:58:40;;;;;;;;;;;6.50;96.70;;;;;;5042181;28;20059;-69
2021/01/07 05:01:06;;;;;;;;;;;6.50;96.80;;;;;;5051984;28;19940;-69
2021/01/07 05:03:34;;;;;;;;;;;6.50;96.70;;;;;;5052555;28;19924;-69
2021/01/07 05:06:00;;;;;;;;;;;6.50;96.60;;;;;;5051939;28;19980;-69
2021/01/07 05:08:27;;;;;;;;;;;6.60;96.60;;;;;;5051633;28;19933;-69
2021/01/07 05:10:58;;;;;;;;;;;6.50;96.70;;;;;;5058297;28;20323;-69
2021/01/07 05:13:24;;;;;;;;;;;6.50;96.40;;;;;;5053066;28;19925;-69
2021/01/07 05:15:50;;;;;;;;;;;6.50;96.80;;;;;;5036419;28;19925;-69
2021/01/07 05:18:17;;;;;;;;;;;6.50;96.80;;;;;;5031590;28;20272;-69
2021/01/07 05:20:43;;;;;;;;;;;6.50;96.90;;;;;;5032351;28;20344;-69
2021/01/07 05:23:09;;;;;;;;;;;6.50;97.00;;;;;;5031989;28;20301;-69
2021/01/07 05:25:37;;;;;;;;;;;6.50;97.00;;;;;;5050762;28;19925;-69
2021/01/07 05:28:05;;;;;;;;;;;6.50;97.10;;;;;;5051599;28;19925;-70
2021/01/07 05:30:32;;;;;;;;;;;6.50;96.90;;;;;;5052269;28;19950;-69
2021/01/07 05:33:02;;;;;;;;;;;6.60;97.10;;;;;;5052376;28;19928;-69
2021/01/07 05:35:29;;;;;;;;;;;6.60;97.00;;;;;;5042988;28;19948;-69
2021/01/07 05:37:57;;;;;;;;;;;6.60;97.10;;;;;;5032640;28;19978;-69
2021/01/07 05:40:23;;;;;;;;;;;6.50;97.20;;;;;;5032967;28;20370;-69
2021/01/07 05:42:50;;;;;;;;;;;6.50;96.90;;;;;;5032632;28;19925;-69
2021/01/07 05:45:17;;;;;;;;;;;6.50;97.10;;;;;;5035201;28;19935;-70
2021/01/07 05:47:44;;;;;;;;;;;6.60;97.10;;;;;;5052739;28;19928;-69
2021/01/07 05:50:11;;;;;;;;;;;6.60;97.10;;;;;;5052140;28;20258;-69
2021/01/07 05:52:41;;;;;;;;;;;6.60;97.00;;;;;;5052855;28;20509;-69
2021/01/07 05:55:08;;;;;;;;;;;6.60;97.00;;;;;;5052260;28;20351;-69
2021/01/07 05:57:36;;;;;;;;;;;6.60;97.00;;;;;;5052563;28;19937;-69
2021/01/07 06:00:04;;;;;;;;;;;6.60;97.10;;;;;;5052568;28;20377;-69
2021/01/07 06:02:32;;;;;;;;;;;6.60;97.10;;;;;;5056682;28;19939;-69
2021/01/07 06:04:58;;;;;;;;;;;6.60;97.20;;;;;;5056158;28;20025;-69
2021/01/07 06:07:26;;;;;;;;;;;6.60;97.10;;;;;;5056689;28;19929;-69
2021/01/07 06:09:53;;;;;;;;;;;6.60;97.10;;;;;;5047324;28;19982;-69
2021/01/07 06:12:19;;;;;;;;;;;6.50;97.00;;;;;;5036535;28;19925;-69
2021/01/07 06:14:46;;;;;;;;;;;6.50;97.20;;;;;;5036419;28;19955;-69
2021/01/07 06:17:13;;;;;;;;;;;6.50;97.20;;;;;;5035950;28;19925;-69
2021/01/07 06:19:40;;;;;;;;;;;6.50;97.20;;;;;;5036517;28;19925;-69
2021/01/07 06:22:10;;;;;;;;;;;6.60;97.20;;;;;;5035872;28;19932;-70
2021/01/07 06:24:38;;;;;;;;;;;6.50;96.90;;;;;;5036657;28;19926;-69
2021/01/07 06:27:22;;;;;;;;;;;6.50;97.20;;;;;;5055695;28;19925;-69
2021/01/07 06:29:49;;;;;;;;;;;6.50;97.00;;;;;;5056362;28;19935;-69
2021/01/07 06:32:17;;;;;;;;;;;6.50;97.30;;;;;;5054925;28;19960;-69
2021/01/07 06:34:45;;;;;;;;;;;6.50;97.50;;;;;;5052553;28;19955;-69
2021/01/07 06:37:13;;;;;;;;;;;6.50;97.30;;;;;;5035637;28;19925;-69
2021/01/07 06:39:41;;;;;;;;;;;6.50;97.10;;;;;;5036051;28;19926;-69
2021/01/07 06:42:07;;;;;;;;;;;6.50;97.20;;;;;;5035603;28;20299;-69
2021/01/07 06:44:34;;;;;;;;;;;6.50;97.30;;;;;;5036007;28;19925;-69
2021/01/07 06:47:00;;;;;;;;;;;6.50;97.30;;;;;;5035349;28;20355;-70
2021/01/07 06:49:28;;;;;;;;;;;6.50;97.20;;;;;;5035786;28;19931;-69
2021/01/07 06:51:59;;;;;;;;;;;6.50;97.30;;;;;;5035381;28;19935;-69
2021/01/07 06:54:28;;;;;;;;;;;6.50;97.40;;;;;;5035778;28;19931;-69
2021/01/07 06:56:54;;;;;;;;;;;6.50;97.10;;;;;;5035225;28;19925;-69
2021/01/07 06:59:21;;;;;;;;;;;6.50;97.20;;;;;;5035754;28;20355;-69
2021/01/07 07:01:48;;;;;;;;;;;6.50;97.30;;;;;;5035701;28;20252;-69
2021/01/07 07:04:23;;;;;;;;;;;6.60;97.30;;;;;;5035363;28;19932;-71
2021/01/07 07:06:56;;;;;;;;;;;6.60;97.20;;;;;;5035858;28;19986;-71
2021/01/07 07:09:24;;;;;;;;;;;6.60;97.10;;;;;;5056307;28;19993;-71
2021/01/07 07:11:51;;;;;;;;;;;6.60;97.00;;;;;;5055315;28;19931;-71
2021/01/07 07:14:19;;;;;;;;;;;6.50;96.80;;;;;;5054659;28;24473;-71
2021/01/07 07:16:46;;;;;;;;;;;6.60;97.00;;;;;;5055154;28;19925;-71
2021/01/07 07:19:22;;;;;;;;;;;6.60;97.00;;;;;;5054945;28;19993;-71
2021/01/07 07:21:52;;;;;;;;;;;6.60;97.00;;;;;;5055319;28;19929;-71
2021/01/07 07:24:20;;;;;;;;;;;6.60;97.30;;;;;;5054819;28;19932;-71
2021/01/07 07:26:47;;;;;;;;;;;6.60;97.30;;;;;;5036625;28;19929;-70
2021/01/07 07:29:15;;;;;;;;;;;6.60;96.80;;;;;;5034612;28;19925;-70
2021/01/07 07:31:42;;;;;;;;;;;6.70;96.80;;;;;;5034951;28;19925;-70
2021/01/07 07:34:09;;;;;;;;;;;6.60;96.80;;;;;;5034612;28;19924;-70
2021/01/07 07:36:35;;;;;;;;;;;6.70;97.10;;;;;;5053341;28;20019;-71
2021/01/07 07:39:03;;;;;;;;;;;6.70;97.10;;;;;;5054357;28;19924;-70
2021/01/07 07:41:29;;;;;;;;;;;6.70;97.10;;;;;;5054796;28;19931;-70
2021/01/07 07:43:56;;;;;;;;;;;6.70;97.00;;;;;;5054902;28;20236;-71
2021/01/07 07:46:24;;;;;;;;;;;6.60;96.90;;;;;;5053939;28;19925;-70
2021/01/07 07:48:56;;;;;;;;;;;6.70;96.90;;;;;;5054575;28;19955;-70
2021/01/07 07:51:23;;;;;;;;;;;6.70;97.00;;;;;;5054203;28;20351;-70
2021/01/07 07:53:49;;;;;;;;;;;6.70;97.10;;;;;;5054339;28;20363;-71
2021/01/07 07:56:22;;;;;;;;;;;6.70;97.10;;;;;;5053825;28;20066;-70
2021/01/07 07:58:48;;;;;;;;;;;6.70;97.10;;;;;;5054483;28;20374;-70
2021/01/07 08:01:15;;;;;;;;;;;6.70;97.00;;;;;;5053852;28;20015;-70
2021/01/07 08:03:41;;;;;;;;;;;6.80;97.10;;;;;;5054249;28;20280;-70
2021/01/07 08:06:07;;;;;;;;;;;6.80;97.10;;;;;;5053781;28;19928;-70
2021/01/07 08:08:34;;;;;;;;;;;6.80;97.10;;;;;;5054179;28;20009;-70
2021/01/07 08:11:00;;;;;;;;;;;6.80;97.10;;;;;;5053960;28;20015;-70
2021/01/07 08:13:27;;;;;;;;;;;6.80;96.90;;;;;;5062127;28;19924;-70
2021/01/07 08:15:55;;;;;;;;;;;6.80;96.90;;;;;;5053991;28;20037;-70
2021/01/07 08:18:22;;;;;;;;;;;6.80;97.00;;;;;;5053450;28;19925;-70
2021/01/07 08:20:49;;;;;;;;;;;6.80;96.90;;;;;;5054045;28;20001;-70
2021/01/07 08:23:16;;;;;;;;;;;6.80;96.90;;;;;;5052951;28;19929;-70
2021/01/07 08:25:45;;;;;;;;;;;6.90;97.00;;;;;;5053781;28;20101;-70
2021/01/07 08:28:21;;;;;;;;;;;6.80;96.90;;;;;;5053446;28;19931;-71
2021/01/07 08:30:49;;;;;;;;;;;6.80;97.00;;;;;;5053873;28;19929;-70
2021/01/07 08:33:16;;;;;;;;;;;6.80;96.90;;;;;;5053119;28;19925;-70
2021/01/07 08:35:43;;;;;;;;;;;6.80;96.90;;;;;;5042245;28;19929;-70
2021/01/07 08:38:10;;;;;;;;;;;6.90;96.70;;;;;;5033286;28;19925;-70
2021/01/07 08:40:36;;;;;;;;;;;6.90;96.60;;;;;;5033603;28;19925;-71
2021/01/07 08:43:12;;;;;;;;;;;6.90;96.70;;;;;;5033752;28;20000;-71
2021/01/07 08:45:39;;;;;;;;;;;6.80;96.50;;;;;;5041459;28;20022;-70
2021/01/07 08:48:06;;;;;;;;;;;6.80;96.80;;;;;;5033413;28;20450;-71
2021/01/07 08:50:32;;;;;;;;;;;6.80;96.80;;;;;;5032989;28;19925;-71
2021/01/07 08:52:59;;;;;;;;;;;6.80;96.50;;;;;;5033313;28;19925;-70
2021/01/07 08:55:51;;;;;;;;;;;6.80;96.70;;;;;;5032765;28;19925;-70
2021/01/07 08:58:21;;;;;;;;;;;6.80;96.80;;;;;;5032897;28;19925;-71
2021/01/07 09:00:47;;;;;;;;;;;6.80;96.60;;;;;;5033448;28;19948;-70
2021/01/07 09:03:14;;;;;;;;;;;6.80;96.60;;;;;;5033188;28;19936;-70
2021/01/07 09:05:40;;;;;;;;;;;6.80;96.50;;;;;;5032607;28;19925;-70
2021/01/07 09:08:07;;;;;;;;;;;6.80;96.50;;;;;;5033289;28;19925;-70
2021/01/07 09:10:34;;;;;;;;;;;6.90;96.40;;;;;;5032637;28;19925;-70
2021/01/07 09:13:00;;;;;;;;;;;6.80;96.40;;;;;;5032912;28;19925;-70
2021/01/07 09:15:27;;;;;;;;;;;6.80;96.60;;;;;;5032664;28;19925;-70
2021/01/07 09:17:55;;;;;;;;;;;6.80;96.70;;;;;;5032797;28;19935;-70
2021/01/07 09:20:22;;;;;;;;;;;6.80;97.10;;;;;;5032491;28;20011;-70
2021/01/07 09:22:49;;;;;;;;;;;6.80;96.90;;;;;;5033053;28;20008;-70
2021/01/07 09:25:17;;;;;;;;;;;6.90;96.80;;;;;;5038613;28;19946;-70
2021/01/07 09:27:44;;;;;;;;;;;6.90;96.60;;;;;;5060728;28;19933;-70
2021/01/07 09:30:11;;;;;;;;;;;6.90;96.50;;;;;;5052891;28;19929;-70
2021/01/07 09:32:37;;;;;;;;;;;6.80;96.60;;;;;;5052202;28;20405;-70
2021/01/07 09:35:04;;;;;;;;;;;6.80;96.70;;;;;;5045716;28;19931;-70
2021/01/07 09:37:30;;;;;;;;;;;6.80;96.70;;;;;;5032284;28;20016;-70
2021/01/07 09:39:56;;;;;;;;;;;6.90;96.60;;;;;;5032785;28;19925;-70
2021/01/07 09:42:25;;;;;;;;;;;6.80;96.50;;;;;;5032356;28;20328;-70
2021/01/07 09:44:51;;;;;;;;;;;6.90;96.60;;;;;;5032787;28;19925;-70
2021/01/07 09:47:17;;;;;;;;;;;6.90;96.50;;;;;;5032518;28;19929;-70
2021/01/07 09:49:44;;;;;;;;;;;6.90;96.40;;;;;;5032365;28;19925;-70
2021/01/07 09:52:10;;;;;;;;;;;6.90;96.40;;;;;;5032584;28;19925;-69
2021/01/07 09:54:38;;;;;;;;;;;6.90;96.40;;;;;;5032238;28;20039;-70
2021/01/07 09:57:04;;;;;;;;;;;7.00;96.30;;;;;;5032598;28;20008;-70
2021/01/07 09:59:32;;;;;;;;;;;6.90;96.30;;;;;;5032251;28;19940;-70
2021/01/07 10:01:59;;;;;;;;;;;7.00;96.30;;;;;;5032706;28;19939;-70
2021/01/07 10:04:25;;;;;;;;;;;6.90;96.30;;;;;;5032383;28;20016;-70
2021/01/07 10:06:51;;;;;;;;;;;7.00;96.40;;;;;;5032358;28;19925;-70
2021/01/07 10:09:18;;;;;;;;;;;7.00;96.50;;;;;;5032650;28;19986;-70
2021/01/07 10:11:48;;;;;;;;;;;7.00;96.10;;;;;;5032054;28;20011;-70
2021/01/07 10:14:14;;;;;;;;;;;7.00;96.20;;;;;;5032298;28;19936;-70
2021/01/07 10:16:46;;;;;;;;;;;7.00;96.20;;;;;;5031935;28;20004;-71
2021/01/07 10:19:12;;;;;;;;;;;7.00;96.30;;;;;;5032637;28;19979;-71
2021/01/07 10:21:39;;;;;;;;;;;6.90;96.00;;;;;;5031957;28;20045;-71
2021/01/07 10:24:06;;;;;;;;;;;7.00;95.90;;;;;;5032586;28;20000;-71
2021/01/07 10:26:32;;;;;;;;;;;7.00;96.00;;;;;;5048050;28;20282;-71
2021/01/07 10:28:59;;;;;;;;;;;7.00;96.00;;;;;;5052364;28;20323;-71
2021/01/07 10:31:25;;;;;;;;;;;7.00;96.10;;;;;;5051819;28;20254;-71
2021/01/07 10:33:52;;;;;;;;;;;7.00;96.00;;;;;;5052086;28;19939;-70
2021/01/07 10:36:18;;;;;;;;;;;7.00;95.80;;;;;;5035531;28;19936;-71
2021/01/07 10:38:46;;;;;;;;;;;7.10;95.90;;;;;;5031932;28;20341;-71
2021/01/07 10:41:13;;;;;;;;;;;7.00;95.50;;;;;;5032239;28;19929;-70
2021/01/07 10:43:39;;;;;;;;;;;7.00;95.50;;;;;;5031848;28;20322;-70
2021/01/07 10:46:05;;;;;;;;;;;7.00;96.00;;;;;;5032468;28;19940;-70
2021/01/07 10:48:35;;;;;;;;;;;7.00;95.80;;;;;;5035480;28;20370;-69
2021/01/07 10:51:03;;;;;;;;;;;7.00;96.00;;;;;;5035706;28;19936;-70
2021/01/07 10:53:36;;;;;;;;;;;7.00;95.90;;;;;;5035462;28;19925;-70
2021/01/07 10:56:03;;;;;;;;;;;7.10;95.90;;;;;;5035989;28;19933;-69
2021/01/07 10:58:47;;;;;;;;;;;7.10;95.90;;;;;;5044881;28;20365;-70
2021/01/07 11:01:28;;;;;;;;;;;7.10;95.80;;;;;;5041856;28;19931;-70
2021/01/07 11:04:02;;;;;;;;;;;7.10;95.80;;;;;;5047509;28;20687;-70
2021/01/07 11:06:30;;;;;;;;;;;7.10;96.40;;;;;;5053736;28;19929;-70
2021/01/07 11:08:59;;;;;;;;;;;7.10;96.00;;;;;;5050680;28;19939;-70
2021/01/07 11:11:26;;;;;;;;;;;7.10;96.10;;;;;;5046337;28;19925;-70
2021/01/07 11:13:54;;;;;;;;;;;7.10;96.00;;;;;;5045749;28;20052;-70
2021/01/07 11:16:22;;;;;;;;;;;7.10;96.00;;;;;;5035119;28;20023;-70
2021/01/07 11:18:49;;;;;;;;;;;7.10;95.90;;;;;;5053669;28;19935;-70
2021/01/07 11:21:20;;;;;;;;;;;7.10;96.00;;;;;;5055257;28;20011;-69
2021/01/07 11:23:48;;;;;;;;;;;7.00;95.70;;;;;;5054498;28;19933;-70
2021/01/07 11:26:15;;;;;;;;;;;7.00;96.00;;;;;;5060666;28;19932;-70
2021/01/07 11:28:41;;;;;;;;;;;7.00;96.00;;;;;;5057031;28;20020;-70
2021/01/07 11:31:11;;;;;;;;;;;7.00;96.20;;;;;;5043917;28;19933;-70
2021/01/07 11:33:39;;;;;;;;;;;7.00;96.00;;;;;;5034654;28;20374;-70
2021/01/07 11:36:08;;;;;;;;;;;7.00;96.00;;;;;;5034923;28;20387;-70
2021/01/07 11:38:39;;;;;;;;;;;7.00;96.20;;;;;;5034599;28;19929;-70
2021/01/07 11:41:09;;;;;;;;;;;7.00;96.00;;;;;;5034841;28;19935;-70
2021/01/07 11:43:50;;;;;;;;;;;7.10;96.00;;;;;;5034603;28;20363;-70
2021/01/07 11:46:18;;;;;;;;;;;7.10;96.00;;;;;;5034611;28;19932;-70
2021/01/07 11:48:46;;;;;;;;;;;7.10;95.70;;;;;;5034398;28;19925;-69
2021/01/07 11:51:13;;;;;;;;;;;7.20;95.80;;;;;;5034572;28;19925;-70
2021/01/07 11:53:39;;;;;;;;;;;7.10;95.70;;;;;;5034222;28;19960;-70
2021/01/07 11:56:07;;;;;;;;;;;7.20;95.70;;;;;;5034492;28;19971;-70
2021/01/07 11:58:35;;;;;;;;;;;7.20;95.80;;;;;;5033782;28;19935;-69
2021/01/07 12:01:02;;;;;;;;;;;7.20;95.80;;;;;;5042348;28;19925;-70
2021/01/07 12:03:30;;;;;;;;;;;7.20;96.00;;;;;;5034415;28;19925;-70
2021/01/07 12:05:57;;;;;;;;;;;7.20;96.00;;;;;;5050137;28;19983;-70
2021/01/07 12:08:29;;;;;;;;;;;7.20;96.20;;;;;;5044105;28;19936;-70
2021/01/07 12:10:58;;;;;;;;;;;7.20;96.20;;;;;;5048514;28;20274;-70
2021/01/07 12:13:32;;;;;;;;;;;7.20;96.50;;;;;;5052429;28;19935;-69
2021/01/07 12:15:58;;;;;;;;;;;7.10;96.50;;;;;;5052431;28;19933;-70
2021/01/07 12:18:26;;;;;;;;;;;7.10;96.70;;;;;;5053760;28;20091;-70
2021/01/07 12:20:52;;;;;;;;;;;7.10;96.90;;;;;;5053455;28;19968;-70
2021/01/07 12:23:19;;;;;;;;;;;7.10;97.00;;;;;;5054013;28;19947;-70
2021/01/07 12:25:47;;;;;;;;;;;7.10;96.90;;;;;;5053145;28;19932;-70
2021/01/07 12:28:15;;;;;;;;;;;7.10;97.10;;;;;;5053958;28;20016;-70
2021/01/07 12:30:45;;;;;;;;;;;7.10;97.20;;;;;;5053409;28;19993;-70
2021/01/07 12:33:18;;;;;;;;;;;7.00;97.40;;;;;;5053600;28;19983;-70
2021/01/07 12:35:50;;;;;;;;;;;7.10;97.30;;;;;;5041506;28;19935;-70
2021/01/07 12:38:20;;;;;;;;;;;7.10;97.20;;;;;;5034114;28;19925;-69
2021/01/07 12:40:53;;;;;;;;;;;7.00;97.20;;;;;;5033358;28;19929;-70
2021/01/07 12:43:20;;;;;;;;;;;7.10;97.50;;;;;;5033789;28;20360;-70
2021/01/07 12:45:48;;;;;;;;;;;7.00;97.40;;;;;;5032978;28;19935;-70
2021/01/07 12:48:14;;;;;;;;;;;7.00;97.50;;;;;;5032396;28;20054;-68
2021/01/07 12:50:42;;;;;;;;;;;7.00;97.60;;;;;;5031482;28;19931;-69
2021/01/07 12:53:08;;;;;;;;;;;7.00;97.50;;;;;;5032800;28;19925;-69
2021/01/07 12:55:34;;;;;;;;;;;7.10;97.40;;;;;;5032470;28;19935;-68
2021/01/07 12:58:11;;;;;;;;;;;7.10;97.80;;;;;;5033969;28;19940;-68
2021/01/07 13:00:40;;;;;;;;;;;7.10;97.20;;;;;;5037939;28;19936;-69
2021/01/07 13:03:14;;;;;;;;;;;7.10;97.30;;;;;;5035053;28;19925;-69
2021/01/07 13:05:41;;;;;;;;;;;7.10;97.10;;;;;;5043651;28;19925;-67
2021/01/07 13:08:07;;;;;;;;;;;7.00;97.10;;;;;;5032977;28;20722;-69
2021/01/07 13:10:36;;;;;;;;;;;7.00;97.30;;;;;;5037032;28;20019;-69
2021/01/07 13:13:03;;;;;;;;;;;7.00;97.30;;;;;;5052547;28;19944;-69
2021/01/07 13:15:30;;;;;;;;;;;7.10;97.10;;;;;;5038803;28;20028;-69
2021/01/07 13:17:59;;;;;;;;;;;7.00;96.90;;;;;;5032632;28;19925;-69
2021/01/07 13:20:26;;;;;;;;;;;7.10;97.00;;;;;;5032898;28;19936;-69
2021/01/07 13:22:52;;;;;;;;;;;7.10;96.50;;;;;;5032682;28;19931;-69
2021/01/07 13:25:19;;;;;;;;;;;7.10;96.50;;;;;;5038995;28;19925;-69
2021/01/07 13:27:45;;;;;;;;;;;7.20;96.10;;;;;;5052661;28;19998;-69
2021/01/07 13:30:12;;;;;;;;;;;7.10;96.00;;;;;;5052937;28;20178;-69
2021/01/07 13:32:38;;;;;;;;;;;7.20;96.00;;;;;;5038306;28;20024;-68
2021/01/07 13:35:07;;;;;;;;;;;7.20;96.00;;;;;;5031507;28;19940;-69
2021/01/07 13:37:35;;;;;;;;;;;7.20;95.60;;;;;;5046236;28;19932;-69
2021/01/07 13:40:05;;;;;;;;;;;7.30;95.50;;;;;;5044117;28;20039;-69
2021/01/07 13:42:32;;;;;;;;;;;7.30;95.30;;;;;;5050204;28;19932;-69
2021/01/07 13:44:59;;;;;;;;;;;7.30;95.10;;;;;;5051123;28;19929;-69
2021/01/07 13:47:26;;;;;;;;;;;7.30;95.40;;;;;;5049528;28;20079;-69
2021/01/07 13:49:55;;;;;;;;;;;7.20;95.00;;;;;;5033795;28;19925;-70
2021/01/07 13:52:22;;;;;;;;;;;7.20;95.20;;;;;;5038289;28;20023;-69
2021/01/07 13:54:50;;;;;;;;;;;7.20;95.20;;;;;;5051996;28;19938;-70
2021/01/07 13:57:17;;;;;;;;;;;7.20;95.30;;;;;;5039818;28;19929;-70
2021/01/07 13:59:43;;;;;;;;;;;7.20;95.20;;;;;;5037865;28;19986;-69
2021/01/07 14:02:10;;;;;;;;;;;7.20;95.40;;;;;;5040092;28;20012;-70
2021/01/07 14:04:36;;;;;;;;;;;7.30;95.10;;;;;;5039082;28;19933;-69
2021/01/07 14:07:05;;;;;;;;;;;7.30;94.70;;;;;;5043210;28;19933;-69
2021/01/07 14:09:33;;;;;;;;;;;7.30;94.60;;;;;;5038675;28;19925;-69
2021/01/07 14:12:01;;;;;;;;;;;7.30;94.70;;;;;;5044602;28;20007;-69
2021/01/07 14:14:28;;;;;;;;;;;7.30;94.70;;;;;;5055189;28;19983;-69
2021/01/07 14:16:54;;;;;;;;;;;7.30;94.80;;;;;;5039943;28;20315;-70
2021/01/07 14:19:20;;;;;;;;;;;7.30;94.70;;;;;;5042603;28;20351;-69
2021/01/07 14:21:47;;;;;;;;;;;7.30;94.70;;;;;;5049910;28;19925;-69
2021/01/07 14:24:13;;;;;;;;;;;7.20;94.80;;;;;;5049242;28;19928;-69
2021/01/07 14:26:44;;;;;;;;;;;7.20;94.80;;;;;;5053798;28;19925;-69
2021/01/07 14:29:12;;;;;;;;;;;7.30;94.80;;;;;;5052755;28;20027;-69
2021/01/07 14:31:39;;;;;;;;;;;7.30;94.70;;;;;;5041087;28;20389;-70
2021/01/07 14:34:06;;;;;;;;;;;7.30;94.70;;;;;;5055586;28;19931;-70
2021/01/07 14:36:34;;;;;;;;;;;7.30;94.60;;;;;;5055020;28;19924;-70
2021/01/07 14:39:00;;;;;;;;;;;7.20;94.70;;;;;;5056453;28;20342;-70
2021/01/07 14:41:27;;;;;;;;;;;7.30;94.90;;;;;;5038933;28;20030;-70
2021/01/07 14:43:54;;;;;;;;;;;7.30;94.80;;;;;;5056806;28;19931;-70